KCCB/CCB METAR and TAF weather

Enter ICAO airport designator
Station Type Date Time Source
KCCB METAR 2020/11/27 02:55 UTC NOAA

KCCB 270255Z AUTO 10009G17KT 10SM CLR 15/M18 A3006 RMK AO2


Station Type Date Time Source
KCCB Decoded METAR 2020/11/27 02:55 UTC NOAA

Station name not available
Nov 26, 2020 - 09:55 PM EST / 2020.11.27 0255 UTC
Wind: from the E (100 degrees) at 10 MPH (9 KT) gusting to 20 MPH (17 KT):0
Visibility: 10 mile(s):0
Sky conditions: clear
Temperature: 59 F (15 C)
Dew Point: 0 F (-18 C)
Relative Humidity: 8%
Pressure (altimeter): 30.06 in. Hg (1017 hPa)
ob: KCCB 270255Z AUTO 10009G17KT 10SM CLR 15/M18 A3006 RMK AO2
cycle: 3

Station Type Date Time Source
KCCB TAF UTC NOAA

Error!

Example: see airport list